Portavogie, United Kingdom
Current Conditions -  °F | °C
As of 9:20 AM on Thursday 27 Nov 2014 (Local Time) from EGAC Reporting Station
Rain Showers Rain Showers  
Wind Chill:   Ceiling: Unl
Heat Index:   Visibility: 4mi
Dew Point:   Wind: 3mph
Humidity: 100%   Direction: 170°S
Pressure: 29.56"   Gusts: NA
Location:  54.46°N, 5.44°W
Report Text: EGAC 270920Z 17003KT 7000 -SHRA FEW009 SCT034 05/05 Q1001
Loading
Personal Weather Stations






























Interactive Weather Map New forecast layout! Learn more

10-Day Weather Forecast

Advertisements
Track Severe Weather on mobile